sensor_id;sensor_type;location;lat;lon;timestamp;P1;durP1;ratioP1;P2;durP2;ratioP2
17404;SDS011;8820;54.604;18.226;2022-11-15T00:02:35;55.90;;;33.73;;
17404;SDS011;8820;54.604;18.226;2022-11-15T00:05:21;59.07;;;36.13;;
17404;SDS011;8820;54.604;18.226;2022-11-15T00:08:09;62.03;;;35.27;;
17404;SDS011;8820;54.604;18.226;2022-11-15T00:10:56;55.67;;;34.20;;
17404;SDS011;8820;54.604;18.226;2022-11-15T00:13:46;55.43;;;35.07;;
17404;SDS011;8820;54.604;18.226;2022-11-15T00:16:33;58.73;;;35.47;;
17404;SDS011;8820;54.604;18.226;2022-11-15T00:19:20;65.40;;;36.63;;
17404;SDS011;8820;54.604;18.226;2022-11-15T00:22:07;58.70;;;34.87;;
17404;SDS011;8820;54.604;18.226;2022-11-15T00:24:54;58.47;;;34.10;;
17404;SDS011;8820;54.604;18.226;2022-11-15T00:27:41;58.87;;;34.03;;
17404;SDS011;8820;54.604;18.226;2022-11-15T00:30:31;59.97;;;33.23;;
17404;SDS011;8820;54.604;18.226;2022-11-15T00:33:18;63.30;;;37.07;;
17404;SDS011;8820;54.604;18.226;2022-11-15T00:36:06;52.10;;;32.27;;
17404;SDS011;8820;54.604;18.226;2022-11-15T00:38:55;58.77;;;32.90;;
17404;SDS011;8820;54.604;18.226;2022-11-15T00:41:42;51.97;;;31.37;;
17404;SDS011;8820;54.604;18.226;2022-11-15T00:44:30;57.50;;;32.60;;
17404;SDS011;8820;54.604;18.226;2022-11-15T00:47:18;62.33;;;33.23;;
17404;SDS011;8820;54.604;18.226;2022-11-15T00:50:06;59.90;;;31.80;;
17404;SDS011;8820;54.604;18.226;2022-11-15T00:52:58;53.87;;;33.07;;
17404;SDS011;8820;54.604;18.226;2022-11-15T00:55:46;56.43;;;33.87;;
17404;SDS011;8820;54.604;18.226;2022-11-15T00:58:33;52.00;;;32.13;;
17404;SDS011;8820;54.604;18.226;2022-11-15T01:01:20;56.77;;;32.13;;
17404;SDS011;8820;54.604;18.226;2022-11-15T01:04:08;51.83;;;32.10;;
17404;SDS011;8820;54.604;18.226;2022-11-15T01:06:56;57.27;;;32.57;;
17404;SDS011;8820;54.604;18.226;2022-11-15T01:09:43;54.80;;;33.60;;
17404;SDS011;8820;54.604;18.226;2022-11-15T01:12:30;62.10;;;34.30;;
17404;SDS011;8820;54.604;18.226;2022-11-15T01:15:17;61.93;;;35.73;;
17404;SDS011;8820;54.604;18.226;2022-11-15T01:18:05;59.33;;;34.13;;
17404;SDS011;8820;54.604;18.226;2022-11-15T01:20:53;58.47;;;35.07;;
17404;SDS011;8820;54.604;18.226;2022-11-15T01:23:41;60.37;;;31.83;;
17404;SDS011;8820;54.604;18.226;2022-11-15T01:26:28;54.20;;;32.30;;
17404;SDS011;8820;54.604;18.226;2022-11-15T01:29:15;58.87;;;32.60;;
17404;SDS011;8820;54.604;18.226;2022-11-15T01:32:03;62.10;;;34.10;;
17404;SDS011;8820;54.604;18.226;2022-11-15T01:34:50;62.50;;;34.70;;
17404;SDS011;8820;54.604;18.226;2022-11-15T01:37:39;61.37;;;34.40;;
17404;SDS011;8820;54.604;18.226;2022-11-15T01:40:26;57.87;;;34.17;;
17404;SDS011;8820;54.604;18.226;2022-11-15T01:43:23;65.60;;;33.00;;
17404;SDS011;8820;54.604;18.226;2022-11-15T01:46:17;66.27;;;34.13;;
17404;SDS011;8820;54.604;18.226;2022-11-15T01:49:16;61.67;;;33.37;;
17404;SDS011;8820;54.604;18.226;2022-11-15T01:52:06;57.07;;;31.27;;
17404;SDS011;8820;54.604;18.226;2022-11-15T01:54:59;60.10;;;32.17;;
17404;SDS011;8820;54.604;18.226;2022-11-15T01:57:53;59.77;;;33.33;;
17404;SDS011;8820;54.604;18.226;2022-11-15T02:00:44;59.33;;;32.27;;
17404;SDS011;8820;54.604;18.226;2022-11-15T02:03:34;62.10;;;32.87;;
17404;SDS011;8820;54.604;18.226;2022-11-15T02:06:27;64.20;;;34.07;;
17404;SDS011;8820;54.604;18.226;2022-11-15T02:09:15;64.30;;;32.90;;
17404;SDS011;8820;54.604;18.226;2022-11-15T02:12:04;57.77;;;31.80;;
17404;SDS011;8820;54.604;18.226;2022-11-15T02:14:53;64.93;;;33.93;;
17404;SDS011;8820;54.604;18.226;2022-11-15T02:17:52;65.73;;;34.93;;
17404;SDS011;8820;54.604;18.226;2022-11-15T02:21:06;61.17;;;33.37;;
17404;SDS011;8820;54.604;18.226;2022-11-15T02:24:16;60.50;;;32.53;;
17404;SDS011;8820;54.604;18.226;2022-11-15T02:27:36;66.93;;;32.93;;
17404;SDS011;8820;54.604;18.226;2022-11-15T02:30:42;58.57;;;32.60;;
17404;SDS011;8820;54.604;18.226;2022-11-15T02:33:35;62.33;;;32.53;;
17404;SDS011;8820;54.604;18.226;2022-11-15T02:36:30;59.00;;;32.00;;
17404;SDS011;8820;54.604;18.226;2022-11-15T02:39:24;63.90;;;32.43;;
17404;SDS011;8820;54.604;18.226;2022-11-15T02:42:17;59.30;;;32.10;;
17404;SDS011;8820;54.604;18.226;2022-11-15T02:45:25;64.60;;;32.57;;
17404;SDS011;8820;54.604;18.226;2022-11-15T02:48:18;60.63;;;33.20;;
17404;SDS011;8820;54.604;18.226;2022-11-15T02:51:07;67.83;;;33.43;;
17404;SDS011;8820;54.604;18.226;2022-11-15T02:53:56;63.57;;;33.23;;
17404;SDS011;8820;54.604;18.226;2022-11-15T02:56:43;59.27;;;31.43;;
17404;SDS011;8820;54.604;18.226;2022-11-15T02:59:42;61.37;;;33.70;;
17404;SDS011;8820;54.604;18.226;2022-11-15T03:06:03;58.07;;;29.67;;
17404;SDS011;8820;54.604;18.226;2022-11-15T03:09:02;58.73;;;30.33;;
17404;SDS011;8820;54.604;18.226;2022-11-15T03:11:53;62.00;;;33.37;;
17404;SDS011;8820;54.604;18.226;2022-11-15T03:14:47;58.53;;;29.87;;
17404;SDS011;8820;54.604;18.226;2022-11-15T03:17:41;53.80;;;28.73;;
17404;SDS011;8820;54.604;18.226;2022-11-15T03:20:34;53.93;;;28.83;;
17404;SDS011;8820;54.604;18.226;2022-11-15T03:23:23;59.80;;;30.67;;
17404;SDS011;8820;54.604;18.226;2022-11-15T03:26:12;56.47;;;29.57;;
17404;SDS011;8820;54.604;18.226;2022-11-15T03:29:03;60.20;;;30.90;;
17404;SDS011;8820;54.604;18.226;2022-11-15T03:31:56;63.97;;;31.07;;
17404;SDS011;8820;54.604;18.226;2022-11-15T03:34:47;59.10;;;31.40;;
17404;SDS011;8820;54.604;18.226;2022-11-15T03:37:41;55.50;;;29.33;;
17404;SDS011;8820;54.604;18.226;2022-11-15T03:40:35;59.93;;;31.40;;
17404;SDS011;8820;54.604;18.226;2022-11-15T03:43:28;57.67;;;29.87;;
17404;SDS011;8820;54.604;18.226;2022-11-15T03:46:28;63.43;;;32.00;;
17404;SDS011;8820;54.604;18.226;2022-11-15T03:49:22;63.37;;;32.83;;
17404;SDS011;8820;54.604;18.226;2022-11-15T03:52:11;64.10;;;33.23;;
17404;SDS011;8820;54.604;18.226;2022-11-15T03:54:59;68.83;;;33.93;;
17404;SDS011;8820;54.604;18.226;2022-11-15T03:57:50;62.07;;;31.53;;
17404;SDS011;8820;54.604;18.226;2022-11-15T04:00:40;67.97;;;33.43;;
17404;SDS011;8820;54.604;18.226;2022-11-15T04:03:27;65.10;;;31.43;;
17404;SDS011;8820;54.604;18.226;2022-11-15T04:06:15;65.40;;;32.87;;
17404;SDS011;8820;54.604;18.226;2022-11-15T04:09:02;67.03;;;32.27;;
17404;SDS011;8820;54.604;18.226;2022-11-15T04:11:49;63.27;;;30.57;;
17404;SDS011;8820;54.604;18.226;2022-11-15T04:14:38;64.07;;;31.57;;
17404;SDS011;8820;54.604;18.226;2022-11-15T04:17:46;64.73;;;30.20;;
17404;SDS011;8820;54.604;18.226;2022-11-15T04:20:34;71.20;;;32.13;;
17404;SDS011;8820;54.604;18.226;2022-11-15T04:23:38;61.70;;;29.33;;
17404;SDS011;8820;54.604;18.226;2022-11-15T04:26:45;59.63;;;30.17;;
17404;SDS011;8820;54.604;18.226;2022-11-15T04:29:32;57.57;;;31.00;;
17404;SDS011;8820;54.604;18.226;2022-11-15T04:32:24;54.57;;;29.13;;
17404;SDS011;8820;54.604;18.226;2022-11-15T04:35:11;56.90;;;29.23;;
17404;SDS011;8820;54.604;18.226;2022-11-15T04:37:59;59.97;;;29.23;;
17404;SDS011;8820;54.604;18.226;2022-11-15T04:40:46;61.13;;;30.20;;
17404;SDS011;8820;54.604;18.226;2022-11-15T04:43:33;64.63;;;31.57;;
17404;SDS011;8820;54.604;18.226;2022-11-15T04:46:21;59.33;;;30.57;;
17404;SDS011;8820;54.604;18.226;2022-11-15T04:49:10;60.23;;;28.90;;
17404;SDS011;8820;54.604;18.226;2022-11-15T04:51:57;58.57;;;29.43;;
17404;SDS011;8820;54.604;18.226;2022-11-15T04:54:44;61.73;;;29.67;;
17404;SDS011;8820;54.604;18.226;2022-11-15T04:57:31;68.87;;;31.70;;
17404;SDS011;8820;54.604;18.226;2022-11-15T05:00:18;69.63;;;30.10;;
17404;SDS011;8820;54.604;18.226;2022-11-15T05:03:05;64.63;;;30.30;;
17404;SDS011;8820;54.604;18.226;2022-11-15T05:06:11;60.40;;;28.90;;
17404;SDS011;8820;54.604;18.226;2022-11-15T05:08:58;65.07;;;29.30;;
17404;SDS011;8820;54.604;18.226;2022-11-15T05:11:45;68.40;;;29.63;;
17404;SDS011;8820;54.604;18.226;2022-11-15T05:14:32;53.43;;;28.10;;
17404;SDS011;8820;54.604;18.226;2022-11-15T05:17:19;63.50;;;30.33;;
17404;SDS011;8820;54.604;18.226;2022-11-15T05:20:07;63.20;;;30.43;;
17404;SDS011;8820;54.604;18.226;2022-11-15T05:22:56;67.40;;;30.53;;
17404;SDS011;8820;54.604;18.226;2022-11-15T05:25:42;62.23;;;29.97;;
17404;SDS011;8820;54.604;18.226;2022-11-15T05:28:30;64.23;;;29.30;;
17404;SDS011;8820;54.604;18.226;2022-11-15T05:31:17;63.10;;;29.70;;
17404;SDS011;8820;54.604;18.226;2022-11-15T05:34:04;53.13;;;27.17;;
17404;SDS011;8820;54.604;18.226;2022-11-15T05:36:52;65.27;;;28.93;;
17404;SDS011;8820;54.604;18.226;2022-11-15T05:39:41;62.87;;;27.83;;
17404;SDS011;8820;54.604;18.226;2022-11-15T05:42:28;58.63;;;28.87;;
17404;SDS011;8820;54.604;18.226;2022-11-15T05:45:16;67.97;;;29.87;;
17404;SDS011;8820;54.604;18.226;2022-11-15T05:48:10;61.27;;;29.67;;
17404;SDS011;8820;54.604;18.226;2022-11-15T05:50:58;60.30;;;28.43;;
17404;SDS011;8820;54.604;18.226;2022-11-15T05:53:46;59.63;;;29.67;;
17404;SDS011;8820;54.604;18.226;2022-11-15T05:56:35;57.00;;;28.93;;
17404;SDS011;8820;54.604;18.226;2022-11-15T05:59:22;59.90;;;29.53;;
17404;SDS011;8820;54.604;18.226;2022-11-15T06:02:10;61.13;;;29.10;;
17404;SDS011;8820;54.604;18.226;2022-11-15T06:04:57;63.07;;;28.83;;
17404;SDS011;8820;54.604;18.226;2022-11-15T06:07:44;62.60;;;29.10;;
17404;SDS011;8820;54.604;18.226;2022-11-15T06:10:31;63.70;;;28.37;;
17404;SDS011;8820;54.604;18.226;2022-11-15T06:13:20;60.13;;;29.83;;
17404;SDS011;8820;54.604;18.226;2022-11-15T06:16:07;57.40;;;27.60;;
17404;SDS011;8820;54.604;18.226;2022-11-15T06:18:54;63.77;;;29.00;;
17404;SDS011;8820;54.604;18.226;2022-11-15T06:21:41;59.70;;;28.17;;
17404;SDS011;8820;54.604;18.226;2022-11-15T06:24:28;56.27;;;27.23;;
17404;SDS011;8820;54.604;18.226;2022-11-15T06:27:15;65.33;;;29.97;;
17404;SDS011;8820;54.604;18.226;2022-11-15T06:30:04;61.90;;;29.10;;
17404;SDS011;8820;54.604;18.226;2022-11-15T06:32:58;58.57;;;27.13;;
17404;SDS011;8820;54.604;18.226;2022-11-15T06:35:46;56.63;;;28.90;;
17404;SDS011;8820;54.604;18.226;2022-11-15T06:38:34;63.97;;;28.10;;
17404;SDS011;8820;54.604;18.226;2022-11-15T06:41:20;67.83;;;30.17;;
17404;SDS011;8820;54.604;18.226;2022-11-15T06:44:07;65.90;;;29.17;;
17404;SDS011;8820;54.604;18.226;2022-11-15T06:46:56;58.03;;;28.03;;
17404;SDS011;8820;54.604;18.226;2022-11-15T06:49:43;56.17;;;28.00;;
17404;SDS011;8820;54.604;18.226;2022-11-15T06:52:30;59.33;;;28.90;;
17404;SDS011;8820;54.604;18.226;2022-11-15T06:55:18;64.33;;;29.70;;
17404;SDS011;8820;54.604;18.226;2022-11-15T06:58:06;55.53;;;27.80;;
17404;SDS011;8820;54.604;18.226;2022-11-15T07:00:52;54.47;;;29.47;;
17404;SDS011;8820;54.604;18.226;2022-11-15T07:03:41;59.10;;;29.80;;
17404;SDS011;8820;54.604;18.226;2022-11-15T07:06:30;59.43;;;28.60;;
17404;SDS011;8820;54.604;18.226;2022-11-15T07:09:17;60.90;;;28.83;;
17404;SDS011;8820;54.604;18.226;2022-11-15T07:12:04;59.83;;;28.77;;
17404;SDS011;8820;54.604;18.226;2022-11-15T07:14:51;62.70;;;30.27;;
17404;SDS011;8820;54.604;18.226;2022-11-15T07:17:39;61.43;;;28.83;;
17404;SDS011;8820;54.604;18.226;2022-11-15T07:20:27;61.57;;;29.93;;
17404;SDS011;8820;54.604;18.226;2022-11-15T07:23:14;56.07;;;28.37;;
17404;SDS011;8820;54.604;18.226;2022-11-15T07:26:01;62.53;;;29.57;;
17404;SDS011;8820;54.604;18.226;2022-11-15T07:28:49;56.40;;;28.10;;
17404;SDS011;8820;54.604;18.226;2022-11-15T07:31:35;63.83;;;30.97;;
17404;SDS011;8820;54.604;18.226;2022-11-15T07:34:22;61.03;;;29.97;;
17404;SDS011;8820;54.604;18.226;2022-11-15T07:37:11;72.70;;;29.67;;
17404;SDS011;8820;54.604;18.226;2022-11-15T07:39:58;57.80;;;28.30;;
17404;SDS011;8820;54.604;18.226;2022-11-15T07:42:45;64.23;;;29.10;;
17404;SDS011;8820;54.604;18.226;2022-11-15T07:45:40;58.57;;;27.70;;
17404;SDS011;8820;54.604;18.226;2022-11-15T07:48:28;82.23;;;31.63;;
17404;SDS011;8820;54.604;18.226;2022-11-15T07:51:27;61.90;;;29.10;;
17404;SDS011;8820;54.604;18.226;2022-11-15T07:54:15;72.30;;;31.60;;
17404;SDS011;8820;54.604;18.226;2022-11-15T07:57:02;123.43;;;65.17;;
17404;SDS011;8820;54.604;18.226;2022-11-15T07:59:51;205.77;;;109.33;;
17404;SDS011;8820;54.604;18.226;2022-11-15T08:02:39;112.83;;;58.23;;
17404;SDS011;8820;54.604;18.226;2022-11-15T08:05:26;114.97;;;55.10;;
17404;SDS011;8820;54.604;18.226;2022-11-15T08:08:13;101.97;;;49.70;;
17404;SDS011;8820;54.604;18.226;2022-11-15T08:11:02;92.10;;;43.07;;
17404;SDS011;8820;54.604;18.226;2022-11-15T08:13:49;74.87;;;40.87;;
17404;SDS011;8820;54.604;18.226;2022-11-15T08:16:36;76.30;;;36.30;;
17404;SDS011;8820;54.604;18.226;2022-11-15T08:19:23;84.27;;;39.47;;
17404;SDS011;8820;54.604;18.226;2022-11-15T08:22:10;84.23;;;39.67;;
17404;SDS011;8820;54.604;18.226;2022-11-15T08:24:57;63.10;;;31.83;;
17404;SDS011;8820;54.604;18.226;2022-11-15T08:27:46;64.97;;;29.83;;
17404;SDS011;8820;54.604;18.226;2022-11-15T08:30:34;64.87;;;30.57;;
17404;SDS011;8820;54.604;18.226;2022-11-15T08:33:22;72.43;;;34.13;;
17404;SDS011;8820;54.604;18.226;2022-11-15T08:43:07;58.67;;;28.83;;
17404;SDS011;8820;54.604;18.226;2022-11-15T08:45:55;68.23;;;29.67;;
17404;SDS011;8820;54.604;18.226;2022-11-15T08:48:42;69.60;;;29.97;;
17404;SDS011;8820;54.604;18.226;2022-11-15T08:51:29;71.60;;;31.60;;
17404;SDS011;8820;54.604;18.226;2022-11-15T08:54:17;64.60;;;30.03;;
17404;SDS011;8820;54.604;18.226;2022-11-15T08:57:04;58.60;;;29.53;;
17404;SDS011;8820;54.604;18.226;2022-11-15T08:59:52;67.20;;;31.67;;
17404;SDS011;8820;54.604;18.226;2022-11-15T09:02:40;78.03;;;34.77;;
17404;SDS011;8820;54.604;18.226;2022-11-15T09:05:27;51.97;;;26.13;;
17404;SDS011;8820;54.604;18.226;2022-11-15T09:08:14;52.60;;;25.87;;
17404;SDS011;8820;54.604;18.226;2022-11-15T09:11:21;52.80;;;27.83;;
17404;SDS011;8820;54.604;18.226;2022-11-15T09:14:10;59.90;;;29.47;;
17404;SDS011;8820;54.604;18.226;2022-11-15T09:16:58;59.17;;;30.00;;
17404;SDS011;8820;54.604;18.226;2022-11-15T09:19:46;56.23;;;27.30;;
17404;SDS011;8820;54.604;18.226;2022-11-15T09:22:33;57.37;;;28.70;;
17404;SDS011;8820;54.604;18.226;2022-11-15T09:25:21;60.93;;;31.07;;
17404;SDS011;8820;54.604;18.226;2022-11-15T09:28:08;55.20;;;28.37;;
17404;SDS011;8820;54.604;18.226;2022-11-15T09:30:55;49.50;;;27.70;;
17404;SDS011;8820;54.604;18.226;2022-11-15T09:33:45;54.53;;;27.80;;
17404;SDS011;8820;54.604;18.226;2022-11-15T09:36:32;60.23;;;30.30;;
17404;SDS011;8820;54.604;18.226;2022-11-15T09:39:20;61.63;;;30.73;;
17404;SDS011;8820;54.604;18.226;2022-11-15T09:42:12;59.43;;;30.80;;
17404;SDS011;8820;54.604;18.226;2022-11-15T09:45:17;56.17;;;29.10;;
17404;SDS011;8820;54.604;18.226;2022-11-15T09:48:13;52.73;;;27.70;;
17404;SDS011;8820;54.604;18.226;2022-11-15T09:51:12;50.83;;;26.63;;
17404;SDS011;8820;54.604;18.226;2022-11-15T09:53:47;56.80;;;27.10;;
17404;SDS011;8820;54.604;18.226;2022-11-15T09:56:44;60.70;;;28.67;;
17404;SDS011;8820;54.604;18.226;2022-11-15T09:59:17;65.90;;;31.47;;
17404;SDS011;8820;54.604;18.226;2022-11-15T10:01:54;65.63;;;31.00;;
17404;SDS011;8820;54.604;18.226;2022-11-15T10:04:31;60.27;;;31.77;;
17404;SDS011;8820;54.604;18.226;2022-11-15T10:07:02;70.03;;;36.63;;
17404;SDS011;8820;54.604;18.226;2022-11-15T10:09:38;56.07;;;30.70;;
17404;SDS011;8820;54.604;18.226;2022-11-15T10:12:13;57.33;;;31.10;;
17404;SDS011;8820;54.604;18.226;2022-11-15T10:14:43;73.23;;;38.37;;
17404;SDS011;8820;54.604;18.226;2022-11-15T10:17:25;102.23;;;52.97;;
17404;SDS011;8820;54.604;18.226;2022-11-15T10:20:24;81.23;;;42.77;;
17404;SDS011;8820;54.604;18.226;2022-11-15T10:22:56;83.47;;;45.77;;
17404;SDS011;8820;54.604;18.226;2022-11-15T10:25:28;58.40;;;31.83;;
17404;SDS011;8820;54.604;18.226;2022-11-15T10:27:59;68.97;;;38.77;;
17404;SDS011;8820;54.604;18.226;2022-11-15T10:30:30;68.83;;;39.33;;
17404;SDS011;8820;54.604;18.226;2022-11-15T10:33:09;52.57;;;28.57;;
17404;SDS011;8820;54.604;18.226;2022-11-15T10:36:14;50.00;;;26.30;;
17404;SDS011;8820;54.604;18.226;2022-11-15T10:38:53;42.80;;;22.93;;
17404;SDS011;8820;54.604;18.226;2022-11-15T10:41:35;43.90;;;24.37;;
17404;SDS011;8820;54.604;18.226;2022-11-15T10:44:11;52.83;;;28.23;;
17404;SDS011;8820;54.604;18.226;2022-11-15T10:47:05;46.70;;;26.53;;
17404;SDS011;8820;54.604;18.226;2022-11-15T10:49:59;45.40;;;24.90;;
17404;SDS011;8820;54.604;18.226;2022-11-15T10:52:30;38.23;;;22.87;;
17404;SDS011;8820;54.604;18.226;2022-11-15T10:55:03;50.60;;;27.53;;
17404;SDS011;8820;54.604;18.226;2022-11-15T10:57:48;45.90;;;25.13;;
17404;SDS011;8820;54.604;18.226;2022-11-15T11:03:20;50.00;;;28.70;;
17404;SDS011;8820;54.604;18.226;2022-11-15T11:06:04;49.70;;;30.07;;
17404;SDS011;8820;54.604;18.226;2022-11-15T11:08:34;47.17;;;25.37;;
17404;SDS011;8820;54.604;18.226;2022-11-15T11:11:05;46.63;;;25.07;;
17404;SDS011;8820;54.604;18.226;2022-11-15T11:13:35;43.50;;;25.87;;
17404;SDS011;8820;54.604;18.226;2022-11-15T11:16:21;37.30;;;23.67;;
17404;SDS011;8820;54.604;18.226;2022-11-15T11:19:08;50.67;;;27.23;;
17404;SDS011;8820;54.604;18.226;2022-11-15T11:21:46;59.23;;;30.60;;
17404;SDS011;8820;54.604;18.226;2022-11-15T11:24:22;58.90;;;32.90;;
17404;SDS011;8820;54.604;18.226;2022-11-15T11:29:59;67.80;;;38.50;;
17404;SDS011;8820;54.604;18.226;2022-11-15T11:32:50;95.77;;;55.03;;
17404;SDS011;8820;54.604;18.226;2022-11-15T11:35:32;74.47;;;43.73;;
17404;SDS011;8820;54.604;18.226;2022-11-15T11:38:11;72.80;;;42.80;;
17404;SDS011;8820;54.604;18.226;2022-11-15T11:40:52;72.23;;;39.80;;
17404;SDS011;8820;54.604;18.226;2022-11-15T11:43:31;50.17;;;29.40;;
17404;SDS011;8820;54.604;18.226;2022-11-15T11:46:08;51.17;;;27.77;;
17404;SDS011;8820;54.604;18.226;2022-11-15T11:48:46;43.37;;;25.03;;
17404;SDS011;8820;54.604;18.226;2022-11-15T11:51:20;44.13;;;24.77;;
17404;SDS011;8820;54.604;18.226;2022-11-15T11:53:52;47.13;;;25.03;;
17404;SDS011;8820;54.604;18.226;2022-11-15T11:56:26;44.70;;;25.57;;
17404;SDS011;8820;54.604;18.226;2022-11-15T11:59:00;54.90;;;28.70;;
17404;SDS011;8820;54.604;18.226;2022-11-15T12:01:34;54.23;;;27.47;;
17404;SDS011;8820;54.604;18.226;2022-11-15T12:04:09;50.60;;;26.20;;
17404;SDS011;8820;54.604;18.226;2022-11-15T12:06:42;48.00;;;27.83;;
17404;SDS011;8820;54.604;18.226;2022-11-15T12:09:17;45.27;;;26.87;;
17404;SDS011;8820;54.604;18.226;2022-11-15T12:11:50;40.53;;;25.93;;
17404;SDS011;8820;54.604;18.226;2022-11-15T12:14:29;47.60;;;25.47;;
17404;SDS011;8820;54.604;18.226;2022-11-15T12:17:00;47.70;;;26.33;;
17404;SDS011;8820;54.604;18.226;2022-11-15T12:19:32;42.13;;;24.00;;
17404;SDS011;8820;54.604;18.226;2022-11-15T12:22:02;40.93;;;25.30;;
17404;SDS011;8820;54.604;18.226;2022-11-15T12:24:34;47.47;;;28.60;;
17404;SDS011;8820;54.604;18.226;2022-11-15T12:27:12;60.93;;;33.70;;
17404;SDS011;8820;54.604;18.226;2022-11-15T12:29:52;49.33;;;26.47;;
17404;SDS011;8820;54.604;18.226;2022-11-15T12:32:25;49.67;;;26.37;;
17404;SDS011;8820;54.604;18.226;2022-11-15T12:34:56;51.33;;;26.27;;
17404;SDS011;8820;54.604;18.226;2022-11-15T12:40:27;49.83;;;30.40;;
17404;SDS011;8820;54.604;18.226;2022-11-15T12:43:05;51.37;;;27.63;;
17404;SDS011;8820;54.604;18.226;2022-11-15T12:45:55;49.37;;;26.13;;
17404;SDS011;8820;54.604;18.226;2022-11-15T12:48:47;52.60;;;26.23;;
17404;SDS011;8820;54.604;18.226;2022-11-15T12:51:20;53.50;;;25.83;;
17404;SDS011;8820;54.604;18.226;2022-11-15T12:57:26;48.60;;;26.03;;
17404;SDS011;8820;54.604;18.226;2022-11-15T13:03:27;47.63;;;26.97;;
17404;SDS011;8820;54.604;18.226;2022-11-15T13:06:01;49.47;;;27.77;;
17404;SDS011;8820;54.604;18.226;2022-11-15T13:08:42;50.50;;;28.17;;
17404;SDS011;8820;54.604;18.226;2022-11-15T13:17:12;59.10;;;28.97;;
17404;SDS011;8820;54.604;18.226;2022-11-15T13:19:55;52.80;;;27.43;;
17404;SDS011;8820;54.604;18.226;2022-11-15T13:22:27;52.33;;;28.33;;
17404;SDS011;8820;54.604;18.226;2022-11-15T13:28:30;60.03;;;30.47;;
17404;SDS011;8820;54.604;18.226;2022-11-15T13:31:02;62.83;;;32.80;;
17404;SDS011;8820;54.604;18.226;2022-11-15T13:33:45;53.23;;;31.03;;
17404;SDS011;8820;54.604;18.226;2022-11-15T13:36:18;55.67;;;30.97;;
17404;SDS011;8820;54.604;18.226;2022-11-15T13:38:55;58.90;;;31.10;;
17404;SDS011;8820;54.604;18.226;2022-11-15T13:41:27;52.80;;;29.97;;
17404;SDS011;8820;54.604;18.226;2022-11-15T13:43:57;54.10;;;30.00;;
17404;SDS011;8820;54.604;18.226;2022-11-15T13:46:27;53.27;;;28.80;;
17404;SDS011;8820;54.604;18.226;2022-11-15T13:48:57;56.10;;;30.27;;
17404;SDS011;8820;54.604;18.226;2022-11-15T13:51:31;56.90;;;26.90;;
17404;SDS011;8820;54.604;18.226;2022-11-15T13:54:07;57.77;;;30.13;;
17404;SDS011;8820;54.604;18.226;2022-11-15T13:56:44;56.50;;;28.90;;
17404;SDS011;8820;54.604;18.226;2022-11-15T13:59:16;54.90;;;30.23;;
17404;SDS011;8820;54.604;18.226;2022-11-15T14:01:50;52.63;;;31.20;;
17404;SDS011;8820;54.604;18.226;2022-11-15T14:04:20;64.03;;;32.23;;
17404;SDS011;8820;54.604;18.226;2022-11-15T14:06:53;62.57;;;30.53;;
17404;SDS011;8820;54.604;18.226;2022-11-15T14:09:30;59.37;;;30.10;;
17404;SDS011;8820;54.604;18.226;2022-11-15T14:14:51;57.90;;;29.57;;
17404;SDS011;8820;54.604;18.226;2022-11-15T14:17:20;56.33;;;29.40;;
17404;SDS011;8820;54.604;18.226;2022-11-15T14:20:01;51.90;;;28.17;;
17404;SDS011;8820;54.604;18.226;2022-11-15T14:22:54;61.63;;;30.87;;
17404;SDS011;8820;54.604;18.226;2022-11-15T14:25:24;63.27;;;33.33;;
17404;SDS011;8820;54.604;18.226;2022-11-15T14:28:13;62.47;;;35.07;;
17404;SDS011;8820;54.604;18.226;2022-11-15T14:30:44;61.27;;;33.13;;
17404;SDS011;8820;54.604;18.226;2022-11-15T14:33:21;61.40;;;33.47;;
17404;SDS011;8820;54.604;18.226;2022-11-15T14:35:51;64.03;;;31.90;;
17404;SDS011;8820;54.604;18.226;2022-11-15T14:38:22;71.27;;;36.03;;
17404;SDS011;8820;54.604;18.226;2022-11-15T14:40:51;78.37;;;40.57;;
17404;SDS011;8820;54.604;18.226;2022-11-15T14:43:20;80.97;;;44.73;;
17404;SDS011;8820;54.604;18.226;2022-11-15T14:45:48;80.00;;;41.70;;
17404;SDS011;8820;54.604;18.226;2022-11-15T14:48:17;81.17;;;42.30;;
17404;SDS011;8820;54.604;18.226;2022-11-15T14:50:45;85.57;;;47.47;;
17404;SDS011;8820;54.604;18.226;2022-11-15T14:53:15;85.13;;;48.07;;
17404;SDS011;8820;54.604;18.226;2022-11-15T14:55:46;175.37;;;95.53;;
17404;SDS011;8820;54.604;18.226;2022-11-15T14:58:15;133.93;;;68.83;;
17404;SDS011;8820;54.604;18.226;2022-11-15T15:00:44;98.50;;;51.00;;
17404;SDS011;8820;54.604;18.226;2022-11-15T15:03:12;95.97;;;48.27;;
17404;SDS011;8820;54.604;18.226;2022-11-15T15:05:49;89.13;;;47.10;;
17404;SDS011;8820;54.604;18.226;2022-11-15T15:08:17;93.37;;;46.50;;
17404;SDS011;8820;54.604;18.226;2022-11-15T15:10:54;135.33;;;63.07;;
17404;SDS011;8820;54.604;18.226;2022-11-15T15:13:23;107.43;;;55.43;;
17404;SDS011;8820;54.604;18.226;2022-11-15T15:15:52;152.23;;;75.97;;
17404;SDS011;8820;54.604;18.226;2022-11-15T15:18:20;123.93;;;63.00;;
17404;SDS011;8820;54.604;18.226;2022-11-15T15:20:51;101.00;;;52.60;;
17404;SDS011;8820;54.604;18.226;2022-11-15T15:23:23;111.53;;;58.03;;
17404;SDS011;8820;54.604;18.226;2022-11-15T15:25:57;93.83;;;48.73;;
17404;SDS011;8820;54.604;18.226;2022-11-15T15:28:25;102.40;;;52.77;;
17404;SDS011;8820;54.604;18.226;2022-11-15T15:30:59;93.63;;;46.30;;
17404;SDS011;8820;54.604;18.226;2022-11-15T15:33:28;99.93;;;50.03;;
17404;SDS011;8820;54.604;18.226;2022-11-15T15:35:57;143.53;;;74.13;;
17404;SDS011;8820;54.604;18.226;2022-11-15T15:38:25;133.63;;;67.03;;
17404;SDS011;8820;54.604;18.226;2022-11-15T15:40:54;93.43;;;49.63;;
17404;SDS011;8820;54.604;18.226;2022-11-15T15:43:24;111.97;;;54.63;;
17404;SDS011;8820;54.604;18.226;2022-11-15T15:45:52;146.70;;;67.27;;
17404;SDS011;8820;54.604;18.226;2022-11-15T15:48:21;109.77;;;56.97;;
17404;SDS011;8820;54.604;18.226;2022-11-15T15:50:49;117.47;;;59.60;;
17404;SDS011;8820;54.604;18.226;2022-11-15T15:53:18;110.83;;;57.40;;
17404;SDS011;8820;54.604;18.226;2022-11-15T15:55:46;188.77;;;85.30;;
17404;SDS011;8820;54.604;18.226;2022-11-15T15:58:15;299.00;;;124.57;;
17404;SDS011;8820;54.604;18.226;2022-11-15T16:00:45;256.17;;;107.13;;
17404;SDS011;8820;54.604;18.226;2022-11-15T16:03:13;149.93;;;63.83;;
17404;SDS011;8820;54.604;18.226;2022-11-15T16:05:42;68.07;;;38.33;;
17404;SDS011;8820;54.604;18.226;2022-11-15T16:08:13;65.60;;;35.33;;
17404;SDS011;8820;54.604;18.226;2022-11-15T16:10:48;53.63;;;29.20;;
17404;SDS011;8820;54.604;18.226;2022-11-15T16:13:18;54.73;;;31.43;;
17404;SDS011;8820;54.604;18.226;2022-11-15T16:15:48;60.40;;;31.50;;
17404;SDS011;8820;54.604;18.226;2022-11-15T16:18:20;52.73;;;27.70;;
17404;SDS011;8820;54.604;18.226;2022-11-15T16:20:49;50.73;;;28.70;;
17404;SDS011;8820;54.604;18.226;2022-11-15T16:23:21;54.30;;;30.00;;
17404;SDS011;8820;54.604;18.226;2022-11-15T16:25:51;60.77;;;32.33;;
17404;SDS011;8820;54.604;18.226;2022-11-15T16:28:22;91.57;;;44.63;;
17404;SDS011;8820;54.604;18.226;2022-11-15T16:31:00;65.93;;;34.40;;
17404;SDS011;8820;54.604;18.226;2022-11-15T16:33:30;63.87;;;35.33;;
17404;SDS011;8820;54.604;18.226;2022-11-15T16:35:59;64.77;;;37.07;;